This is the latest recevied weather packets stored in our database for station/object YO3IEZ-WX. If no packets are shown the sender has not sent any weather packets the latest 10 day(s).
| Time | Temp. | Humidity | Pressure | Rain* | Wind** | Luminosity | Snow |
|---|---|---|---|---|---|---|---|
| 1777527047 | 5.56° C | 88% | 1012.5 hPa | 0.51 mm | - | 37 W/m² | - |
| 1777526148 | 5.56° C | 87% | 1012.3 hPa | 0.51 mm | - | 37 W/m² | - |
| 1777525246 | 5.56° C | 87% | 1012.3 hPa | 0.25 mm | - | 26 W/m² | - |
| 1777524349 | 5.56° C | 86% | 1012.1 hPa | 0.25 mm | - | 23 W/m² | - |
| 1777520751 | 6.11° C | 85% | 1011.8 hPa | 0.25 mm | - | 11 W/m² | - |
| 1777519848 | 6.11° C | 85% | 1011.5 hPa | 0.25 mm | - | 0 W/m² | - |
| 1777518049 | 6.11° C | 83% | 1011.4 hPa | 0 mm | - | 0 W/m² | - |
| 1777509949 | 8.89° C | 63% | 1010.8 hPa | 0 mm | - | 0 W/m² | - |
| 1777492852 | 10.56° C | 67% | 1009.8 hPa | 0 mm | - | 0 W/m² | - |
| 1777489250 | 10.56° C | 74% | 1009.7 hPa | 0 mm | - | 0 W/m² | - |
| 1777488355 | 10.56° C | 72% | 1009.7 hPa | 0 mm | - | 0 W/m² | - |
| 1777487454 | 11.11° C | 69% | 1009.4 hPa | 0 mm | - | 0 W/m² | - |
| 1777480252 | 12.78° C | 63% | 1008.5 hPa | 0 mm | - | 32 W/m² | - |
| 1777478451 | 12.78° C | 61% | 1008.5 hPa | 0 mm | - | 49 W/m² | - |
| 1777472158 | 14.44° C | 55% | 1008.1 hPa | 0 mm | - | 190 W/m² | - |
| 1777466747 | 14.44° C | 55% | 1008.1 hPa | 0 mm | - | 401 W/m² | - |
| 1777464952 | 14.44° C | 54% | 1008.5 hPa | 0 mm | - | 239 W/m² | - |
| 1777463160 | 13.89° C | 53% | 1008.5 hPa | 0 mm | - | 334 W/m² | - |
| 1777462248 | 13.89° C | 52% | 1008.5 hPa | 0 mm | - | 378 W/m² | - |
| 1777449647 | 12.22° C | 54% | 1009 hPa | 0 mm | - | 462 W/m² | - |
| 1777446953 | 12.22° C | 57% | 1008.8 hPa | 0 mm | - | 306 W/m² | - |
| 1777443352 | 11.11° C | 61% | 1008.6 hPa | 0 mm | - | 223 W/m² | - |
| 1777441551 | 10.56° C | 64% | 1008.5 hPa | 0 mm | - | 269 W/m² | - |
| 1777438848 | 9.44° C | 65% | 1008.4 hPa | 0 mm | - | 200 W/m² | - |
| 1777436151 | 8.89° C | 65% | 1008.3 hPa | 0 mm | - | 93 W/m² | - |
* Rain latest hour (hover to see other rain measurements)
** Current wind speed in m/s (hover to see current wind gust speed)